ACT        NSW        VIC        QLD        SA        WA        TAS        NT        INFO        CALC            by VK5ZD

  Atmospheric Gas Attenuation - ITU Rec 676-11   --------------- db/100km ---------------
NSW Stations Date Time Temp RH % AH g/m3 Dew Point Wind Direction Speed kph Gust kph Barometer mB Rainfall Since 9am 24GHz 47GHz 76GHz 122GHz 134GHz 241GHz
Albion Park 03 08:40 24.3 73 16.15 19.1 9 11 1014 0 35.0 35.1 64.8 171.3 184.1 639.2
Albury 03 08:40 22.4 79 15.69 18.6 0 0 1014.5 2.8 34.2 35.1 64.4 170.1 182.1 631.8
Armidale Airport 03 08:40 18.6 88 14 16.6 9 9 1014.7 0 30.9 33.6 59.9 158.0 166.0 575.1
Badgerys Creek 03 08:40 22.7 76 15.35 18.4 2 4 1013.1 0 33.4 34.3 62.6 165.2 176.2 611.5
Ballina 03 08:40 23.1 82 16.95 19.9 17 20 1015.4 0 36.8 37.2 69.6 183.9 199.2 691.4
Bankstown 03 08:40 22.9 70 14.3 17.1 7 9 1014.3 0 31.2 32.5 57.9 152.8 161.0 558.3
Bathurst Airport 03 08:40 20.3 80 14.07 16.7 4 7 1015.8 0.2 30.9 33.1 58.9 155.5 163.4 566.5
Bega 03 08:40 19.5 81 13.59 16.2 15 17 1016.8 0.2 29.9 32.6 57.5 151.6 158.3 548.5
Bellambi 03 08:40 22.2 81 15.9 18.8 17 19 1013.1 0 34.6 35.5 65.4 172.9 185.5 643.6
Bombala Aws 03 08:40 14 92 11.1 12.7 13 17 1013.1 0 24.9 30.0 50.2 132.1 132.6 458.0
Borrona Downs 03 08:40 29.9 39 11.77 14.8 1013.1 0 25.4 26.1 43.5 114.5 116.0 401.9
Bourke 03 08:40 28.5 53 14.82 18 11 11 1014.1 0 31.8 31.3 56.0 147.8 156.5 543.3
Brewon 03 08:40 26.4 57 14.19 17.4 1013.1 0 30.7 31.0 54.9 144.8 152.2 528.2
Broken Hill Airport 03 08:40 15.2 61 7.92 7.7 28 32 1017.8 0 18.1 24.6 36.7 96.0 88.3 303.2
Camden 03 08:40 22.1 71 13.86 16.6 0 0 1014.2 0 30.3 32.0 56.6 149.4 156.5 542.5
Campbelltown 03 08:40 22.7 75 15.15 18 0 0 1013.1 0 33.0 34.0 61.7 162.9 173.4 601.4
Canterbury 03 08:40 23.4 71 14.93 17.8 7 13 1013.1 0 32.5 33.3 60.2 158.9 168.6 585.1
Cape Byron 03 08:40 21.3 93 17.33 20.1 28 32 1015.3 4.6 37.8 38.7 73.1 193.1 209.9 728.6
Casino 03 08:40 24.3 71 15.71 18.7 6 7 1015.6 0 34.0 34.4 63.0 166.4 178.0 617.8
Cessnock Airport 03 08:40 20.3 98 17.23 20 15 17 1014.3 0 37.6 38.9 73.5 194.2 211.1 732.3
Cobar 03 08:40 25.2 57 13.27 16.1 13 15 1015 0 28.8 29.9 52.1 137.3 142.5 494.2
Cobar Airport 03 08:40 24.7 63 14.26 17.2 15 17 1015.1 0.2 30.9 31.8 56.5 149.0 156.8 543.9
Coffs Harbour Airport 03 08:40 23.6 69 14.67 17.6 13 15 1015.9 1.4 31.9 32.9 59.0 155.9 164.9 572.0
Condobolin Airport 03 08:40 24.3 78 17.26 20.2 11 11 1015.1 0 37.3 37.2 69.9 184.7 200.6 696.5
Coonabarabran Airport 03 08:40 23.5 66 13.96 16.8 7 9 1014.6 0 30.4 31.7 56.0 147.9 155.1 537.7
Coonamble 03 08:40 24.7 68 15.39 18.4 15 17 1014.6 0 33.3 33.7 61.2 161.7 172.4 598.4
Cowra 03 08:40 23.3 75 15.68 18.6 9 11 1014.6 0 34.1 34.7 63.6 168.0 179.8 624.0
Deniliquin 03 08:39 16.4 71 9.91 11.1 20 24 1016.2 1.6 22.2 27.4 43.9 115.3 112.5 388.3
Dubbo 03 08:40 24 68 14.79 17.7 6 7 1014.7 0 32.1 32.9 59.2 156.3 165.5 574.4
Evans Head 03 08:40 24.2 75 16.5 19.5 24 32 1015.2 0 35.7 35.9 66.5 175.8 189.6 658.3
Forbes 03 08:40 24.7 66 14.94 17.9 7 9 1014.5 0 32.4 32.9 59.3 156.5 166.1 576.4
Fowlers Gap 03 08:40 20.2 46 8.04 8.2 19 22 1016.7 0 18.1 23.4 34.8 91.3 84.2 289.6
Girilambone 03 08:40 27.6 55 14.63 18 1013.1 0 31.5 31.2 55.8 147.3 155.7 540.4
Glen Innes Airport 03 08:40 19.5 76 12.75 15.2 0 2 1014.8 0.2 28.1 31.1 53.7 141.7 146.1 506.0
Gosford 03 08:40 23.8 92 19.79 22.4 7 9 1013.1 0 42.8 42.2 82.3 217.7 241.0 836.8
Grafton Agrs 03 08:40 23.3 76 15.89 18.8 9 11 1013.1 0 34.5 35.0 64.5 170.3 182.7 633.9
Grafton Airport 03 08:30 23.5 68 14.38 17.3 7 9 1015.8 0.2 31.3 32.4 57.9 152.7 161.0 558.5
Green Cape 03 08:40 16.3 94 13.04 15.3 41 43 1013.1 0 29.0 32.7 57.2 150.9 156.5 541.8
Griffith 03 08:40 18.8 95 15.3 18 9 11 1015 1.8 33.6 35.9 65.7 173.6 185.1 641.8
Gunnedah Airport 03 08:40 24.1 62 13.57 16.4 9 11 1015 0 29.5 30.8 54.0 142.5 148.6 515.3
Hay Airport 03 08:40 18 75 11.52 13.5 26 32 1016.2 2.6 25.6 29.5 49.6 130.5 131.9 456.1
High Range (Wanganderry) 03 08:40 21.3 70 13.05 15.6 15 17 1013.1 0 28.6 30.9 53.7 141.6 146.7 508.2
Holsworthy 03 08:40 22.6 71 14.26 17.1 6 7 1014.1 0 31.1 32.5 57.9 152.9 161.0 558.4
Holsworthy (Defence) 03 08:40 22.9 70 14.3 17.3 4 6 1013.1 0 31.2 32.4 57.8 152.7 160.8 557.8
Horsley Park 03 08:40 22.4 75 14.89 17.9 0 2 1013.1 0 32.5 33.6 60.8 160.5 170.3 590.7
Inverell Rs 03 08:40 22.5 70 13.98 16.8 7 7 1015 0 30.5 32.1 56.9 150.1 157.4 545.8
Ivanhoe Airport 03 08:40 17.9 81 12.37 14.6 22 26 1016.3 3.6 27.4 31.0 53.3 140.4 144.0 498.3
Kapooka (Defence) 03 08:40 24.2 58 12.76 15.6 2 7 1013.1 0 27.8 29.4 50.6 133.3 137.4 476.3
Kempsey Airport 03 08:40 22.6 76 15.27 18.2 6 6 1015.6 0 33.2 34.3 62.4 164.9 175.6 609.3
Khancoban 03 08:40 18.9 85 13.77 16.3 1015.1 1.8 30.3 33.1 58.6 154.7 162.0 561.3
Kiama 03 08:40 20.4 78 13.8 16.4 15 17 1013.1 0 30.3 32.5 57.5 151.8 159.0 551.1
Lake Macquarie - Cooranbong 03 08:40 21.8 82 15.73 18.7 0 0 1013.1 0.2 34.3 35.4 65.0 171.8 184.0 638.2
Lismore Airport 03 08:40 23.2 76 15.8 18.7 9 11 1015.5 0 34.3 35.0 64.3 169.8 181.9 631.3
Lord Howe Island 03 08:40 23.6 76 16.16 19.1 20 24 1014.3 0 35.1 35.5 65.5 173.0 186.0 645.7
Maitland Airport 03 08:40 18.5 99 15.66 18.3 17 19 1015.2 0 34.4 36.7 67.7 178.8 191.4 663.8
Mangrove Mountain 03 08:40 21.7 78 14.88 17.7 7 9 1013.1 0 32.5 33.9 61.3 161.8 171.7 595.6
Marrangaroo (Defence) 03 08:40 20.5 66 11.74 14.1 4 6 1013.1 0 25.9 28.9 48.8 128.5 130.3 450.9
Merimbula 03 08:40 20.1 75 13.04 15.5 17 22 1017 0 28.7 31.4 54.7 144.1 149.3 517.1
Merriwa 03 08:40 20.9 84 15.3 18.1 2 6 1015.3 0 33.4 35.1 63.9 168.9 180.0 624.4
Moree 03 08:40 26 61 14.85 17.9 13 15 1015 0 32.1 32.3 58.0 153.0 162.1 562.7
Moss Vale 03 08:40 21.9 73 14.09 16.8 15 20 1014.7 0 30.8 32.5 57.8 152.4 160.2 555.4
Mount Boyce 03 08:40 18.4 75 11.8 13.9 17 20 1013.1 3 26.2 29.7 50.3 132.6 134.7 466.1
Mount Hope 03 08:40 23.2 71 14.76 17.8 1013.1 1.8 32.1 33.1 59.6 157.3 166.7 578.2
Mudgee 03 08:40 21 80 14.65 17.4 7 7 1015 0.2 32.1 33.8 60.9 160.8 170.2 590.2
Mulurulu 03 08:40 16.6 67 9.46 10.6 1013.1 11.2 21.3 26.5 41.8 109.8 106.0 365.5
Murrurundi Gap 03 08:40 20.9 71 12.93 15.4 20 22 1014.2 0 28.4 30.8 53.5 141.1 145.9 505.4
Narrabri 03 08:40 24.4 61 13.57 16.6 4 7 1015.2 0 29.5 30.7 53.8 142.0 148.1 513.4
Narrandera Airport 03 08:40 24 63 13.71 16.5 13 15 1014.4 0.8 29.8 31.1 54.6 144.1 150.6 522.3
Nerriga 03 08:40 21.4 73 13.68 16.5 11 15 1013.1 0.2 30.0 31.9 56.3 148.5 155.3 538.1
Newcastle Nobbys 03 08:40 20 90 15.55 18.4 15 19 1013.1 0 34.1 35.8 65.7 173.6 185.7 644.0
Noona 03 08:40 23.5 71 15.01 18.1 1013.1 4.6 32.6 33.4 60.4 159.6 169.5 588.2
Norah Head 03 08:40 23.8 90 19.36 22 11 13 1013.1 0.2 41.9 41.3 80.2 212.1 234.1 812.9
Norfolk Island 03 08:00 21.9 83 16.02 18.9 28 32 1016.2 0.6 34.9 36.0 66.4 175.5 188.4 653.8
Nullo Mountain 03 08:40 20.1 75 13.04 15.5 6 7 1013.1 0 28.7 31.3 54.5 143.6 148.9 515.6
Orange Airport 03 08:40 20.9 72 13.11 15.7 7 9 1015.5 0 28.8 31.2 54.3 143.3 148.5 514.7
Parkes Airport 03 08:40 25.6 54 12.86 15.6 11 13 1014.6 0 27.9 29.1 50.1 132.2 136.4 472.9
Penrith 03 08:40 22.8 75 15.24 18.1 0 0 1013.1 0 33.2 34.1 62.0 163.7 174.4 605.1
Point Perpendicular 03 08:40 18.9 100 16.2 18.9 32 39 1014.9 0 35.6 37.6 69.9 184.7 198.8 689.4
Port Macquarie Airport 03 08:40 22.7 74 14.95 17.8 7 9 1015.7 0.2 32.6 33.7 60.9 160.9 170.8 592.5
Portable Npws Nsw01 03 08:00 19.7 87 14.77 17.5 7 7 1013.1 0 32.4 34.5 62.4 164.8 174.7 605.7
Portable Npws Nsw02 03 08:30 19.8 74 12.64 15.1 9 11 1013.1 0 27.9 30.7 53.0 139.6 143.8 498.1
Portable Rfsnsw01 03 08:30 23.3 70 14.64 17.6 6 7 1013.1 0 31.9 32.8 59.0 155.8 164.8 571.5
Portable Rfsnsw02 03 08:30 23.6 54 11.48 13.8 2 4 1013.1 0 25.2 27.5 45.9 120.8 121.9 421.9
Portable Rfsnsw10 03 08:30 23.4 69 14.51 17.5 6 7 1013.1 0 31.6 32.6 58.4 154.1 162.7 564.4
Portable Rfsnsw12 03 08:30 23.1 68 14.06 16.9 0 0 1013.1 0 30.6 31.9 56.7 149.6 157.1 544.7
Portable Rfsnsw51 03 08:30 24.1 68 14.88 17.9 4 6 1013.1 2.2 32.3 33.0 59.4 156.9 166.4 577.3
Portable Rfsnsw52 03 08:30 23.6 74 15.74 18.7 6 7 1013.1 8.4 34.2 34.7 63.5 167.9 179.8 623.9
Portable Rfsnsw53 03 08:30 25.6 56 13.33 16.3 11 13 1013.1 0.2 28.9 29.8 51.9 137.0 142.4 493.8
Portable Rfsnsw55 03 08:30 25.1 59 13.66 16.6 2 2 1013.1 0 29.7 30.5 53.6 141.4 147.7 512.2
Portable Wn01 (Water Nsw) 03 08:30 24.4 69 15.36 18.5 2 2 1013.1 0 33.3 33.7 61.2 161.8 172.5 598.6
Richmond 03 08:40 21.3 84 15.66 18.5 0 0 1014.2 0 34.2 35.5 65.2 172.2 184.3 639.3
Scone Airport 03 08:40 21.3 84 15.66 18.5 6 6 1014.8 0 34.2 35.5 65.2 172.3 184.4 639.6
Singleton (Defence) 03 08:40 20.6 85 15.21 18.1 7 9 1013.1 0 33.3 34.9 63.7 168.1 179.1 621.2
Smithville 03 08:40 24.8 29 6.6 5.5 1013.1 0 14.9 20.2 28.1 73.3 63.6 217.9
Sydney - Observatory Hill 03 08:40 22.1 81 15.81 18.7 9 1013.9 0.4 34.4 35.4 65.2 172.2 184.5 640.2
Sydney Airport 03 08:40 24.2 64 14.08 17 11 13 1014.3 0 30.6 31.6 56.0 147.8 155.3 538.5
Sydney Olympic Park 03 08:40 23.9 72 15.58 18.5 11 15 1013.1 0 33.8 34.3 62.6 165.4 176.8 613.4
Tamworth Airport 03 08:40 22.3 74 14.61 17.4 4 6 1015.4 0 31.9 33.3 59.8 157.7 166.8 578.5
Taree Airport 03 08:40 22.2 80 15.71 18.6 0 0 1015.4 0.2 34.2 35.3 64.7 170.9 183.0 634.9
Temora 03 08:40 25.5 56 13.26 16.1 7 9 1014.7 0 28.8 29.8 51.8 136.6 141.8 491.8
Terrey Hills 03 08:40 22.4 76 15.09 18.1 2 4 1013.1 0 32.9 34.0 61.7 162.8 173.2 600.7
Tibooburra Airport 03 08:40 29.4 34 9.98 11.9 7 9 1014.6 0 21.7 23.7 37.5 98.6 96.1 332.5
Tocal 03 08:40 21.1 81 14.92 17.7 7 7 1013.1 0 32.6 34.2 61.9 163.6 173.7 602.3
Trangie 03 08:40 25.6 58 13.81 16.7 7 9 1014.7 0 29.9 30.7 53.9 142.3 148.9 516.5
Wagga Wagga 03 08:40 23.2 65 13.51 16.3 11 13 1014.2 0.2 29.5 31.0 54.3 143.4 149.4 518.1
Walgett 03 08:40 25.9 68 16.46 19.5 13 13 1014.8 0 35.5 35.1 64.9 171.5 184.8 641.7
West Wyalong 03 08:40 25.3 66 15.45 18.5 6 9 1014.3 0.2 33.4 33.5 61.0 161.1 171.9 596.6
White Cliffs Aws 03 08:40 23.1 42 8.68 9.5 24 26 1015.9 0 19.3 23.6 35.9 94.0 88.6 305.2
Wilcannia Airport 03 08:40 22 54 10.48 12.3 24 30 1016.4 2.2 23.1 26.6 43.1 113.2 111.9 386.7
Williamtown 03 08:40 21.5 85 16.03 18.9 9 11 1015 0 35.0 36.1 66.8 176.4 189.4 657.2
Yamba 03 08:40 24 76 16.53 19.5 17 20 1015.4 3.8 35.8 36.0 66.9 176.7 190.6 661.7
Yanco 03 08:40 22.9 74 15.12 18 9 11 1013.1 0.2 32.9 33.8 61.4 162.1 172.5 598.3
Young 03 08:40 22.6 69 13.86 16.6 7 9 1014.2 0 30.3 31.8 56.2 148.4 155.5 539.0

Last Refresh: 03-Dec-2021 08:27:17

Bureau of Meteorology